| Record Date MM/DD/YYYY | Record Time HH:MM:SS | Record Julian Date NNN day of the year | Air Temperature Max (Degrees Fahrenheit F) | Time Max Air Temperature HH:MM:SS This is the time of max air temp for the prior hour interval listed for record [Time]. | Air Temperature Min (Degrees Fahrenheit F) | Time Min Air Temperature HH:MM:SS This is the time of min air temp for the prior hour interval listed for record [Time]. | Air Temperature Observed (Degrees Fahrenheit F) This is an instantaneous reading at the record [Time]. | Relative Humidity Max (Percent) | Time Max Relative Humidity HH:MM:SS This is the time of max relative humidity for the prior hour interval listed for record [Time]. | Relative Humidity Min (Percent) | Time Min Relative Humidity HH:MM:SS This is the time of min relative humidity for the prior hour interval listed for record [Time]. | Relative Humidity Observed (Percent) This is an instantaneous reading at the record [Time]. | Precipitation (Inches n.nn) rain fall that occurred during the prior hour interval listed for record [Time]. | Wind Speed (Miles Per Hour) Resultant Speed that occurred during the prior hour interval listed for record [Time]. | Wind Direction (Degrees) Resultant Direction that occurred during the prior hour interval listed for record [Time]. | Solar Radiation (Langley's) that occurred during the prior hour interval listed for record [Time]. | Soil Temperature Average at 2 inch depth (Degrees Fahrenheit F) that occurred during the prior hour interval listed for record [Time]. | Soil Temperature Observed at 2 inch depth (Degrees Fahrenheit F) This is an instantaneous reading at the record [Time]. | Soil Temperature Average at 4 inch depth (Degrees Fahrenheit F) that occurred during the prior hour interval listed for record [Time]. | Soil Temperature Observed at 4 inch depth (Degrees Fahrenheit F) This is an instantaneous reading at the record [Time]. |
|---|---|---|---|---|---|---|---|---|---|---|---|---|---|---|---|---|---|---|---|---|
| 04/30/2026 | 0:00:00 | 120 | 65 | 23:30:01 | 63 | 23:59:02 | 63 | 91 | 0:00:00 | 84 | 23:26:00 | 91 | 0.07 | 4.8 | 360 | 0 | 69 | 69 | 70 | 70 |
| 04/30/2026 | 1:00:00 | 120 | 63 | 0:00:00 | 62 | 0:57:00 | 62 | 93 | 0:59:03 | 91 | 0:08:01 | 92.7 | 0.06 | 6.4 | 358 | 0 | 69 | 68 | 70 | 70 |
| 04/30/2026 | 2:00:00 | 120 | 62 | 1:38:02 | 61 | 1:14:02 | 61 | 93 | 1:01:05 | 92 | 1:14:04 | 92.4 | 0.01 | 4.9 | 21 | 0 | 68 | 68 | 69 | 69 |
| 04/30/2026 | 3:00:00 | 120 | 62 | 2:38:00 | 61 | 2:04:04 | 62 | 93 | 2:49:03 | 92 | 2:01:00 | 93.1 | 0 | 3.9 | 14 | 0 | 68 | 68 | 69 | 69 |
| 04/30/2026 | 4:00:00 | 120 | 62 | 3:00:01 | 61 | 3:59:03 | 61 | 93 | 3:00:02 | 90 | 3:59:01 | 89.6 | 0 | 6.1 | 20 | 0 | 68 | 68 | 69 | 69 |
| 04/30/2026 | 5:00:00 | 120 | 61 | 4:00:02 | 60 | 4:59:05 | 60 | 90 | 4:03:04 | 87 | 4:57:05 | 87.4 | 0 | 6.8 | 20 | 0 | 67 | 67 | 69 | 68 |
| 04/30/2026 | 6:00:00 | 120 | 60 | 5:01:02 | 60 | 5:56:02 | 60 | 88 | 5:02:01 | 86 | 5:53:05 | 85.9 | 0 | 8.1 | 22 | 1 | 67 | 67 | 68 | 68 |
| 04/30/2026 | 7:00:00 | 120 | 60 | 6:00:03 | 59 | 6:57:01 | 59 | 86 | 6:01:02 | 83 | 6:59:03 | 83.3 | 0 | 8.2 | 30 | 9 | 67 | 66 | 68 | 68 |
| 04/30/2026 | 8:00:00 | 120 | 61 | 7:59:05 | 59 | 7:00:00 | 61 | 83 | 7:00:03 | 75 | 7:57:01 | 75.73 | 0 | 9.3 | 39 | 27 | 66 | 66 | 68 | 67 |
| 04/30/2026 | 9:00:00 | 120 | 62 | 8:37:01 | 61 | 8:01:04 | 62 | 77 | 8:05:01 | 71 | 8:39:01 | 72.88 | 0 | 9.5 | 42 | 41 | 66 | 66 | 67 | 67 |
| 04/30/2026 | 10:00:00 | 120 | 64 | 9:44:05 | 62 | 9:00:00 | 64 | 74 | 9:06:00 | 70 | 9:47:04 | 71.94 | 0 | 8.1 | 48 | 50 | 66 | 66 | 67 | 67 |
| 04/30/2026 | 11:00:00 | 120 | 66 | 10:42:03 | 64 | 10:03:04 | 65 | 73 | 10:41:01 | 68 | 10:46:03 | 71.87 | 0 | 6.9 | 52 | 58 | 66 | 66 | 67 | 67 |
| 04/30/2026 | 12:00:00 | 120 | 68 | 12:00:00 | 65 | 11:06:03 | 68 | 72 | 11:00:05 | 66 | 11:37:01 | 69.66 | 0 | 7.1 | 43 | 65 | 66 | 66 | 67 | 67 |
| 04/30/2026 | 13:00:00 | 120 | 69 | 12:34:03 | 67 | 12:04:00 | 68 | 70 | 12:09:05 | 64 | 12:41:02 | 64.91 | 0 | 7.2 | 30 | 60 | 67 | 67 | 67 | 67 |
| 04/30/2026 | 14:00:00 | 120 | 68 | 13:02:02 | 66 | 13:58:04 | 66 | 67 | 13:00:04 | 62 | 13:06:02 | 63.91 | 0 | 7.6 | 20 | 35 | 67 | 67 | 67 | 68 |
| 04/30/2026 | 15:00:00 | 120 | 67 | 14:09:00 | 66 | 14:44:04 | 66 | 69 | 14:09:01 | 64 | 14:00:00 | 66.96 | 0 | 7.2 | 16 | 27 | 67 | 67 | 68 | 68 |
| 04/30/2026 | 16:00:00 | 120 | 67 | 15:00:05 | 66 | 15:59:05 | 66 | 70 | 15:27:05 | 65 | 15:59:04 | 65.39 | 0 | 7.1 | 12 | 20 | 67 | 67 | 68 | 68 |
| 04/30/2026 | 17:00:00 | 120 | 66 | 16:01:02 | 65 | 16:58:03 | 65 | 71 | 17:00:00 | 66 | 16:00:00 | 71.24 | 0 | 4.1 | 24 | 8 | 67 | 67 | 68 | 68 |
| 04/30/2026 | 18:00:00 | 120 | 65 | 17:00:01 | 64 | 17:59:01 | 64 | 76 | 17:28:04 | 70 | 17:05:01 | 74.89 | 0 | 2.6 | 26 | 4 | 67 | 67 | 67 | 67 |
| 04/30/2026 | 19:00:00 | 120 | 64 | 18:08:05 | 63 | 18:59:03 | 63 | 81 | 18:52:03 | 73 | 18:17:02 | 80.2 | 0 | 2.6 | 13 | 1 | 67 | 67 | 67 | 67 |
| 04/30/2026 | 20:00:00 | 120 | 63 | 19:05:00 | 62 | 19:46:03 | 62 | 84 | 19:40:05 | 80 | 19:01:01 | 81.8 | 0 | 2.2 | 11 | 0 | 67 | 66 | 67 | 67 |
| 04/30/2026 | 21:00:00 | 120 | 62 | 20:06:05 | 61 | 20:54:01 | 61 | 84 | 20:40:00 | 80 | 20:16:02 | 81.8 | 0 | 3.1 | 9 | 0 | 66 | 66 | 67 | 67 |
| 04/30/2026 | 22:00:00 | 120 | 61 | 21:03:00 | 61 | 21:51:01 | 61 | 82 | 21:00:00 | 79 | 21:38:05 | 79.69 | 0 | 4.1 | 25 | 0 | 66 | 66 | 67 | 67 |
| 04/30/2026 | 23:00:00 | 120 | 61 | 22:02:05 | 60 | 22:57:02 | 60 | 82 | 22:56:02 | 80 | 22:01:02 | 81.8 | 0 | 4.1 | 2 | 0 | 66 | 66 | 67 | 67 |
| 05/01/2026 | 0:00:00 | 121 | 60 | 23:01:03 | 59 | 23:56:04 | 59 | 82 | 23:01:05 | 79 | 23:50:05 | 79.55 | 0 | 4.6 | 21 | 0 | 66 | 65 | 67 | 67 |
| 05/01/2026 | 1:00:00 | 121 | 59 | 0:00:02 | 58 | 0:59:02 | 58 | 81 | 1:00:00 | 79 | 0:13:00 | 81.1 | 0 | 4.0 | 26 | 0 | 65 | 65 | 66 | 66 |
| 05/01/2026 | 2:00:00 | 121 | 59 | 1:00:04 | 58 | 1:58:02 | 58 | 81 | 1:24:00 | 79 | 1:50:03 | 79.51 | 0 | 3.9 | 24 | 0 | 65 | 65 | 66 | 66 |
| 05/01/2026 | 3:00:00 | 121 | 58 | 2:01:00 | 58 | 2:59:00 | 58 | 81 | 2:29:03 | 78 | 2:53:04 | 78.88 | 0 | 3.5 | 27 | 0 | 65 | 65 | 66 | 66 |
| 05/01/2026 | 4:00:00 | 121 | 58 | 3:01:01 | 57 | 3:59:03 | 57 | 84 | 3:58:05 | 79 | 3:00:01 | 83.5 | 0 | 2.3 | 30 | 0 | 65 | 64 | 66 | 66 |
| 05/01/2026 | 5:00:00 | 121 | 57 | 4:00:00 | 56 | 4:58:04 | 56 | 86 | 4:28:02 | 83 | 4:01:02 | 85.3 | 0 | 2.4 | 15 | 0 | 64 | 64 | 66 | 65 |
| 05/01/2026 | 6:00:00 | 121 | 56 | 5:53:04 | 56 | 5:14:05 | 56 | 87 | 5:53:04 | 85 | 5:24:05 | 86.8 | 0 | 3.5 | 4 | 1 | 64 | 64 | 65 | 65 |
| 05/01/2026 | 7:00:00 | 121 | 57 | 7:00:00 | 56 | 6:07:03 | 57 | 88 | 6:13:04 | 85 | 6:45:04 | 85.7 | 0 | 3.1 | 19 | 6 | 64 | 64 | 65 | 65 |
| 05/01/2026 | 8:00:00 | 121 | 58 | 7:59:01 | 57 | 7:00:01 | 58 | 86 | 7:00:03 | 80 | 7:54:05 | 81 | 0 | 4.1 | 15 | 9 | 64 | 64 | 65 | 65 |
| 05/01/2026 | 9:00:00 | 121 | 59 | 8:58:05 | 58 | 8:00:00 | 59 | 81 | 8:00:04 | 78 | 8:53:00 | 78.82 | 0 | 3.8 | 25 | 11 | 64 | 64 | 65 | 65 |
| 05/01/2026 | 10:00:00 | 121 | 60 | 9:59:01 | 59 | 9:00:00 | 60 | 80 | 9:04:03 | 75 | 10:00:00 | 75.1 | 0 | 4.4 | 34 | 18 | 64 | 64 | 65 | 65 |
| 05/01/2026 | 11:00:00 | 121 | 61 | 10:59:00 | 60 | 10:00:01 | 61 | 76 | 10:00:05 | 70 | 10:40:02 | 71.23 | 0 | 5.1 | 29 | 21 | 64 | 64 | 65 | 65 |
| 05/01/2026 | 12:00:00 | 121 | 61 | 11:54:00 | 61 | 11:03:03 | 61 | 72 | 11:53:05 | 68 | 11:33:04 | 70.68 | 0 | 4.3 | 24 | 17 | 64 | 64 | 65 | 65 |
| 05/01/2026 | 13:00:00 | 121 | 62 | 12:57:02 | 61 | 12:06:01 | 62 | 73 | 12:21:02 | 68 | 12:54:05 | 68.72 | 0 | 4.6 | 30 | 20 | 64 | 64 | 65 | 65 |
| 05/01/2026 | 14:00:00 | 121 | 63 | 13:48:05 | 62 | 13:00:04 | 63 | 71 | 13:06:02 | 66 | 13:57:04 | 66.46 | 0 | 4.4 | 35 | 22 | 64 | 64 | 65 | 65 |
| 05/01/2026 | 15:00:00 | 121 | 64 | 14:37:00 | 62 | 14:03:05 | 63 | 68 | 14:27:02 | 64 | 14:32:00 | 66.31 | 0 | 6.0 | 31 | 30 | 64 | 64 | 65 | 65 |
| 05/01/2026 | 16:00:00 | 121 | 63 | 15:12:04 | 63 | 15:32:03 | 63 | 70 | 15:56:01 | 65 | 15:00:03 | 69.02 | 0 | 5.5 | 43 | 21 | 64 | 64 | 65 | 65 |
| 05/01/2026 | 17:00:00 | 121 | 63 | 16:01:03 | 63 | 16:54:04 | 63 | 73 | 16:57:04 | 69 | 16:12:04 | 72.38 | 0 | 4.4 | 37 | 11 | 64 | 64 | 65 | 65 |
| 05/01/2026 | 18:00:00 | 121 | 63 | 17:01:02 | 61 | 17:59:03 | 61 | 81 | 18:00:00 | 72 | 17:03:01 | 80.8 | 0 | 1.4 | 42 | 3 | 64 | 64 | 65 | 65 |
| 05/01/2026 | 19:00:00 | 121 | 61 | 18:00:02 | 60 | 18:58:02 | 60 | 88 | 19:00:00 | 80 | 18:11:02 | 88.3 | 0 | 0.1 | 100 | 1 | 64 | 64 | 65 | 65 |
| 05/01/2026 | 20:00:00 | 121 | 60 | 19:00:00 | 59 | 19:49:04 | 59 | 90 | 19:35:04 | 86 | 20:00:00 | 86.3 | 0 | 1.2 | 327 | 0 | 64 | 64 | 65 | 65 |
| 05/01/2026 | 21:00:00 | 121 | 59 | 20:19:01 | 59 | 20:07:05 | 59 | 86 | 20:00:02 | 73 | 20:59:05 | 73.12 | 0 | 4.2 | 349 | 0 | 64 | 64 | 65 | 65 |
| 05/01/2026 | 22:00:00 | 121 | 59 | 21:05:05 | 59 | 21:59:04 | 59 | 73 | 21:01:01 | 69 | 21:47:01 | 70.46 | 0 | 5.2 | 346 | 0 | 64 | 64 | 65 | 65 |
| 05/01/2026 | 23:00:00 | 121 | 59 | 22:32:03 | 59 | 22:04:04 | 59 | 71 | 22:04:03 | 68 | 22:54:02 | 68.64 | 0 | 4.9 | 357 | 0 | 64 | 63 | 65 | 64 |
| 05/02/2026 | 0:00:00 | 122 | 59 | 23:00:01 | 58 | 23:45:02 | 58 | 72 | 23:44:01 | 69 | 23:00:00 | 70.89 | 0 | 4.3 | 9 | 0 | 63 | 63 | 64 | 64 |
| 05/02/2026 | 1:00:00 | 122 | 58 | 0:02:05 | 58 | 0:59:05 | 58 | 71 | 0:17:03 | 70 | 0:28:02 | 70.52 | 0 | 4.1 | 25 | 0 | 63 | 63 | 64 | 64 |
| 05/02/2026 | 2:00:00 | 122 | 58 | 1:18:01 | 57 | 1:58:01 | 57 | 72 | 1:42:02 | 70 | 1:17:04 | 71.65 | 0 | 3.8 | 18 | 0 | 63 | 63 | 64 | 64 |
| 05/02/2026 | 3:00:00 | 122 | 57 | 2:00:01 | 56 | 2:59:04 | 56 | 77 | 2:59:05 | 72 | 2:00:00 | 76.91 | 0 | 3.5 | 12 | 0 | 63 | 63 | 64 | 64 |
| 05/02/2026 | 4:00:00 | 122 | 56 | 3:00:00 | 55 | 3:26:01 | 55 | 79 | 3:16:04 | 77 | 3:47:04 | 78.54 | 0 | 3.6 | 355 | 0 | 62 | 62 | 64 | 63 |
| 05/02/2026 | 5:00:00 | 122 | 55 | 4:00:00 | 52 | 4:57:03 | 52 | 84 | 5:00:00 | 79 | 4:01:01 | 84.4 | 0 | 3.0 | 333 | 0 | 62 | 62 | 63 | 63 |
| 05/02/2026 | 6:00:00 | 122 | 53 | 5:18:04 | 52 | 5:54:01 | 52 | 85 | 5:56:02 | 84 | 5:16:00 | 85.3 | 0 | 2.4 | 331 | 2 | 62 | 62 | 63 | 63 |
| 05/02/2026 | 7:00:00 | 122 | 56 | 6:59:05 | 52 | 6:00:01 | 56 | 85 | 6:02:05 | 77 | 6:59:01 | 77.19 | 0 | 3.2 | 332 | 15 | 62 | 62 | 63 | 63 |
| 05/02/2026 | 8:00:00 | 122 | 60 | 7:59:01 | 56 | 7:00:00 | 60 | 77 | 7:00:00 | 65 | 7:58:01 | 65.42 | 0 | 4.4 | 356 | 38 | 62 | 62 | 63 | 63 |
| 05/02/2026 | 9:00:00 | 122 | 63 | 8:56:00 | 60 | 8:00:01 | 63 | 68 | 8:05:05 | 60 | 8:59:03 | 61.02 | 0 | 4.9 | 358 | 55 | 62 | 62 | 63 | 63 |
| 05/02/2026 | 10:00:00 | 122 | 66 | 9:58:05 | 63 | 9:01:05 | 66 | 62 | 9:04:05 | 50 | 9:32:04 | 52.68 | 0 | 5.2 | 14 | 69 | 62 | 62 | 63 | 63 |
| 05/02/2026 | 11:00:00 | 122 | 69 | 11:00:00 | 66 | 10:01:00 | 69 | 56 | 10:04:04 | 45 | 10:55:02 | 49.39 | 0 | 6.4 | 342 | 79 | 63 | 63 | 63 | 63 |
| 05/02/2026 | 12:00:00 | 122 | 70 | 11:59:01 | 68 | 11:17:03 | 70 | 52 | 11:02:03 | 41 | 11:57:03 | 43.23 | 0 | 5.8 | 340 | 84 | 63 | 63 | 63 | 64 |
| 05/02/2026 | 13:00:00 | 122 | 71 | 12:57:01 | 69 | 12:03:02 | 71 | 47 | 12:11:00 | 40 | 12:53:04 | 41.38 | 0 | 6.6 | 338 | 87 | 64 | 64 | 64 | 64 |
| 05/02/2026 | 14:00:00 | 122 | 72 | 13:38:01 | 69 | 13:14:03 | 71 | 47 | 13:16:05 | 40 | 13:43:01 | 39.97 | 0 | 6.8 | 352 | 67 | 64 | 64 | 64 | 64 |
| 05/02/2026 | 15:00:00 | 122 | 73 | 14:34:05 | 70 | 14:43:05 | 71 | 44 | 14:20:01 | 39 | 14:10:01 | 43.3 | 0 | 7.5 | 341 | 53 | 64 | 64 | 64 | 65 |
| 05/02/2026 | 16:00:00 | 122 | 73 | 15:51:01 | 70 | 15:36:03 | 72 | 44 | 15:05:05 | 38 | 15:47:05 | 39.24 | 0 | 7.3 | 315 | 45 | 64 | 65 | 65 | 65 |
| 05/02/2026 | 17:00:00 | 122 | 72 | 16:25:00 | 70 | 16:40:05 | 71 | 45 | 16:43:05 | 38 | 16:16:02 | 40.99 | 0 | 6.8 | 317 | 20 | 65 | 65 | 65 | 65 |
| 05/02/2026 | 18:00:00 | 122 | 71 | 17:20:05 | 69 | 17:57:05 | 69 | 46 | 17:51:02 | 41 | 17:00:00 | 44.51 | 0 | 6.3 | 321 | 16 | 65 | 64 | 65 | 65 |
| 05/02/2026 | 19:00:00 | 122 | 69 | 18:00:00 | 63 | 18:59:05 | 63 | 63 | 18:59:03 | 44 | 18:01:05 | 63.2 | 0 | 1.9 | 327 | 2 | 64 | 64 | 65 | 65 |
| 05/02/2026 | 20:00:00 | 122 | 63 | 19:00:00 | 59 | 19:58:05 | 59 | 74 | 19:53:02 | 63 | 19:04:02 | 73.95 | 0 | 0.0 | 40 | 0 | 64 | 64 | 65 | 65 |
| 05/02/2026 | 21:00:00 | 122 | 59 | 20:01:04 | 56 | 21:00:00 | 56 | 83 | 20:56:05 | 74 | 20:00:00 | 82.3 | 0 | 0.1 | 34 | 0 | 64 | 64 | 65 | 65 |
| 05/02/2026 | 22:00:00 | 122 | 56 | 21:00:02 | 55 | 21:59:05 | 55 | 85 | 21:42:01 | 81 | 21:03:01 | 83.7 | 0 | 0.2 | 33 | 0 | 64 | 63 | 64 | 64 |
| 05/02/2026 | 23:00:00 | 122 | 55 | 22:00:02 | 52 | 22:57:03 | 52 | 88 | 22:59:02 | 84 | 22:01:02 | 87.8 | 0 | 0.5 | 44 | 0 | 63 | 63 | 64 | 64 |
| 05/03/2026 | 0:00:00 | 123 | 53 | 23:04:04 | 51 | 23:57:03 | 51 | 90 | 23:59:04 | 88 | 23:04:00 | 89.9 | 0 | 0.3 | 25 | 0 | 63 | 63 | 64 | 64 |
| 05/03/2026 | 1:00:00 | 123 | 51 | 0:00:02 | 49 | 0:57:01 | 50 | 92 | 0:59:03 | 90 | 0:00:03 | 91.6 | 0 | 0.4 | 178 | 0 | 63 | 62 | 64 | 64 |
| 05/03/2026 | 2:00:00 | 123 | 50 | 1:35:02 | 49 | 1:52:02 | 49 | 93 | 1:57:02 | 91 | 1:08:03 | 92.3 | 0 | 0.5 | 339 | 0 | 62 | 62 | 63 | 63 |
| 05/03/2026 | 3:00:00 | 123 | 53 | 2:59:04 | 49 | 2:00:00 | 53 | 92 | 2:00:00 | 84 | 2:59:05 | 84 | 0 | 1.4 | 61 | 0 | 62 | 62 | 63 | 63 |
| 05/03/2026 | 4:00:00 | 123 | 53 | 3:11:01 | 52 | 3:55:04 | 52 | 84 | 3:00:00 | 81 | 3:28:05 | 82.9 | 0 | 2.3 | 94 | 0 | 62 | 61 | 63 | 63 |
| 05/03/2026 | 5:00:00 | 123 | 52 | 4:01:01 | 51 | 4:59:01 | 51 | 85 | 4:59:05 | 83 | 4:02:03 | 85.2 | 0 | 1.4 | 103 | 0 | 61 | 61 | 63 | 63 |
| 05/03/2026 | 6:00:00 | 123 | 52 | 5:59:05 | 50 | 5:20:00 | 52 | 86 | 5:22:00 | 83 | 5:58:05 | 82.7 | 0 | 1.8 | 79 | 3 | 61 | 61 | 62 | 62 |
| 05/03/2026 | 7:00:00 | 123 | 57 | 6:59:03 | 52 | 6:00:00 | 57 | 83 | 6:00:01 | 75 | 7:00:00 | 74.59 | 0 | 2.8 | 96 | 19 | 61 | 61 | 62 | 62 |
| 05/03/2026 | 8:00:00 | 123 | 61 | 7:58:02 | 57 | 7:00:01 | 61 | 75 | 7:02:03 | 63 | 7:49:05 | 63.86 | 0 | 3.9 | 114 | 38 | 61 | 61 | 62 | 62 |
| 05/03/2026 | 9:00:00 | 123 | 65 | 8:46:05 | 61 | 8:03:02 | 65 | 65 | 8:00:04 | 55 | 8:50:03 | 56.1 | 0 | 4.9 | 141 | 55 | 62 | 62 | 62 | 62 |
| 05/03/2026 | 10:00:00 | 123 | 69 | 9:59:03 | 65 | 9:02:03 | 69 | 57 | 9:18:03 | 53 | 9:46:01 | 54.05 | 0 | 5.2 | 162 | 70 | 62 | 63 | 63 | 63 |
| 05/03/2026 | 11:00:00 | 123 | 72 | 10:59:03 | 69 | 10:05:01 | 72 | 56 | 10:24:05 | 51 | 10:53:04 | 50.99 | 0 | 5.0 | 166 | 80 | 63 | 64 | 63 | 63 |
| 05/03/2026 | 12:00:00 | 123 | 73 | 11:34:05 | 72 | 11:00:00 | 73 | 53 | 11:05:00 | 40 | 11:57:05 | 42.84 | 0 | 4.5 | 210 | 84 | 64 | 65 | 64 | 64 |
| 05/03/2026 | 13:00:00 | 123 | 76 | 12:55:04 | 73 | 12:00:00 | 76 | 47 | 12:55:00 | 38 | 12:12:02 | 43.54 | 0 | 3.9 | 242 | 84 | 65 | 66 | 64 | 65 |
| 05/03/2026 | 14:00:00 | 123 | 77 | 13:42:01 | 75 | 13:07:00 | 76 | 47 | 13:23:04 | 41 | 13:14:05 | 43.11 | 0 | 4.1 | 244 | 79 | 66 | 66 | 65 | 65 |
| 05/03/2026 | 15:00:00 | 123 | 78 | 14:50:05 | 76 | 14:20:01 | 77 | 45 | 14:01:05 | 40 | 14:21:00 | 43.87 | 0 | 5.8 | 255 | 69 | 67 | 67 | 66 | 66 |
| 05/03/2026 | 16:00:00 | 123 | 78 | 15:08:01 | 77 | 15:00:04 | 78 | 44 | 15:20:01 | 39 | 15:51:02 | 41.25 | 0 | 5.8 | 257 | 54 | 67 | 67 | 66 | 66 |
| 05/03/2026 | 17:00:00 | 123 | 78 | 16:09:05 | 77 | 17:00:00 | 77 | 43 | 16:57:03 | 39 | 16:04:05 | 41.27 | 0 | 4.6 | 246 | 37 | 67 | 67 | 67 | 67 |
| 05/03/2026 | 18:00:00 | 123 | 77 | 17:07:02 | 75 | 17:59:05 | 75 | 46 | 17:59:05 | 40 | 17:09:01 | 45.63 | 0 | 4.2 | 223 | 18 | 67 | 67 | 67 | 67 |
| 05/03/2026 | 19:00:00 | 123 | 75 | 18:00:00 | 68 | 19:00:00 | 68 | 62 | 18:59:00 | 46 | 18:02:00 | 61.86 | 0 | 1.8 | 193 | 2 | 67 | 67 | 67 | 67 |
| 05/03/2026 | 20:00:00 | 123 | 68 | 19:00:00 | 63 | 19:59:05 | 63 | 77 | 19:59:01 | 61 | 19:00:04 | 76.54 | 0 | 0.1 | 222 | 0 | 67 | 67 | 67 | 67 |
| 05/03/2026 | 21:00:00 | 123 | 63 | 20:00:00 | 61 | 20:57:02 | 61 | 80 | 20:54:00 | 75 | 20:29:02 | 78.26 | 0 | 1.6 | 191 | 0 | 67 | 66 | 67 | 67 |
| 05/03/2026 | 22:00:00 | 123 | 64 | 21:27:01 | 61 | 21:00:00 | 63 | 78 | 21:00:00 | 72 | 21:42:04 | 73.17 | 0 | 3.3 | 170 | 0 | 66 | 66 | 67 | 66 |
| 05/03/2026 | 23:00:00 | 123 | 63 | 22:22:04 | 62 | 22:51:00 | 63 | 75 | 22:52:00 | 73 | 22:24:05 | 74.23 | 0 | 3.7 | 172 | 0 | 66 | 66 | 66 | 66 |
| 05/04/2026 | 0:00:00 | 124 | 63 | 23:06:04 | 62 | 23:26:02 | 62 | 75 | 23:27:00 | 74 | 23:06:05 | 74.93 | 0 | 4.0 | 175 | 0 | 66 | 65 | 66 | 66 |
| 05/04/2026 | 1:00:00 | 124 | 62 | 0:01:00 | 62 | 0:34:01 | 62 | 77 | 0:38:01 | 75 | 0:00:00 | 76.41 | 0 | 3.8 | 185 | 0 | 65 | 65 | 66 | 66 |
| 05/04/2026 | 2:00:00 | 124 | 62 | 1:00:05 | 61 | 1:41:01 | 61 | 78 | 1:42:01 | 76 | 1:01:00 | 77.51 | 0 | 3.8 | 187 | 0 | 65 | 65 | 66 | 66 |
| 05/04/2026 | 3:00:00 | 124 | 61 | 2:22:05 | 61 | 2:09:01 | 61 | 78 | 2:39:05 | 77 | 2:29:01 | 78.04 | 0 | 4.8 | 184 | 0 | 65 | 65 | 66 | 65 |
| 05/04/2026 | 4:00:00 | 124 | 61 | 3:00:02 | 59 | 3:59:05 | 59 | 82 | 4:00:00 | 78 | 3:00:01 | 81.8 | 0 | 4.2 | 186 | 0 | 65 | 65 | 65 | 65 |
| 05/04/2026 | 5:00:00 | 124 | 59 | 4:00:02 | 58 | 4:15:05 | 58 | 84 | 4:21:02 | 82 | 4:00:00 | 83.9 | 0 | 4.2 | 191 | 0 | 65 | 65 | 65 | 65 |
| 05/04/2026 | 6:00:00 | 124 | 61 | 5:59:00 | 58 | 5:00:00 | 61 | 84 | 5:00:02 | 80 | 5:59:04 | 79.81 | 0 | 5.4 | 197 | 3 | 64 | 64 | 65 | 65 |
| 05/04/2026 | 7:00:00 | 124 | 64 | 7:00:00 | 61 | 6:00:03 | 64 | 80 | 6:00:01 | 74 | 6:58:02 | 75.19 | 0 | 6.7 | 203 | 18 | 64 | 64 | 65 | 65 |
| 05/04/2026 | 8:00:00 | 124 | 68 | 7:59:00 | 64 | 7:00:00 | 68 | 75 | 7:00:01 | 69 | 8:00:00 | 69.33 | 0 | 7.5 | 220 | 35 | 64 | 64 | 65 | 65 |
| 05/04/2026 | 9:00:00 | 124 | 72 | 8:58:04 | 67 | 8:01:03 | 71 | 70 | 8:02:02 | 60 | 8:59:03 | 60.95 | 0 | 8.7 | 228 | 51 | 65 | 65 | 65 | 65 |
| 05/04/2026 | 10:00:00 | 124 | 75 | 9:59:05 | 71 | 9:01:05 | 75 | 62 | 9:04:01 | 53 | 9:55:03 | 54.99 | 0 | 10.5 | 226 | 69 | 65 | 65 | 65 | 65 |
| 05/04/2026 | 11:00:00 | 124 | 78 | 10:59:02 | 75 | 10:15:01 | 77 | 55 | 10:00:00 | 50 | 11:00:00 | 49.73 | 0 | 9.7 | 222 | 79 | 65 | 66 | 65 | 66 |
| 05/04/2026 | 12:00:00 | 124 | 79 | 11:35:05 | 77 | 11:02:04 | 79 | 52 | 11:06:04 | 43 | 11:39:02 | 46.23 | 0 | 10.1 | 206 | 82 | 66 | 67 | 66 | 66 |
| 05/04/2026 | 13:00:00 | 124 | 80 | 12:52:03 | 77 | 12:11:05 | 79 | 47 | 12:13:04 | 43 | 12:56:03 | 44.67 | 0 | 10.6 | 202 | 81 | 67 | 68 | 66 | 67 |
| 05/04/2026 | 14:00:00 | 124 | 80 | 13:54:04 | 78 | 13:17:01 | 80 | 46 | 13:30:05 | 42 | 13:06:04 | 44.81 | 0 | 10.8 | 195 | 75 | 68 | 68 | 67 | 67 |
| 05/04/2026 | 15:00:00 | 124 | 80 | 14:07:05 | 78 | 14:44:01 | 79 | 47 | 14:34:05 | 43 | 14:13:02 | 45.16 | 0 | 10.5 | 194 | 64 | 69 | 69 | 68 | 68 |
| 05/04/2026 | 16:00:00 | 124 | 80 | 15:23:00 | 78 | 15:58:05 | 78 | 47 | 15:30:02 | 43 | 15:10:03 | 44.54 | 0 | 11.6 | 187 | 51 | 69 | 69 | 68 | 68 |
| 05/04/2026 | 17:00:00 | 124 | 79 | 16:10:05 | 77 | 16:55:03 | 77 | 48 | 16:58:00 | 44 | 16:17:04 | 46.65 | 0 | 11.5 | 188 | 34 | 69 | 69 | 68 | 69 |
| 05/04/2026 | 18:00:00 | 124 | 77 | 17:00:00 | 75 | 17:59:05 | 75 | 49 | 17:42:03 | 47 | 17:03:02 | 48.24 | 0 | 9.6 | 193 | 16 | 69 | 69 | 69 | 69 |
| 05/04/2026 | 19:00:00 | 124 | 75 | 18:00:01 | 72 | 18:59:04 | 72 | 53 | 19:00:00 | 48 | 18:00:00 | 53.29 | 0 | 6.8 | 189 | 2 | 69 | 69 | 69 | 69 |
| 05/04/2026 | 20:00:00 | 124 | 72 | 19:00:00 | 70 | 19:59:02 | 70 | 56 | 19:59:05 | 53 | 19:00:00 | 55.83 | 0 | 4.9 | 181 | 0 | 69 | 69 | 69 | 69 |
| 05/04/2026 | 21:00:00 | 124 | 70 | 20:00:00 | 67 | 20:58:03 | 68 | 62 | 21:00:00 | 56 | 20:00:00 | 61.83 | 0 | 4.1 | 179 | 0 | 68 | 68 | 68 | 68 |
| 05/04/2026 | 22:00:00 | 124 | 68 | 21:20:02 | 67 | 21:06:04 | 68 | 63 | 21:46:03 | 62 | 21:00:00 | 63.13 | 0 | 4.2 | 176 | 0 | 68 | 68 | 68 | 68 |
| 05/04/2026 | 23:00:00 | 124 | 68 | 22:04:00 | 67 | 22:34:00 | 67 | 65 | 22:59:01 | 63 | 22:01:03 | 65.28 | 0 | 4.3 | 176 | 0 | 68 | 68 | 68 | 68 |
| 05/05/2026 | 0:00:00 | 125 | 67 | 23:00:00 | 65 | 23:59:05 | 65 | 70 | 23:59:04 | 65 | 23:00:00 | 69.51 | 0 | 4.2 | 168 | 0 | 67 | 67 | 68 | 68 |
| 05/05/2026 | 1:00:00 | 125 | 65 | 0:00:00 | 64 | 0:59:03 | 64 | 72 | 1:00:00 | 69 | 0:00:00 | 72 | 0 | 4.7 | 167 | 0 | 67 | 67 | 68 | 67 |
| 05/05/2026 | 2:00:00 | 125 | 65 | 1:00:02 | 63 | 1:59:00 | 63 | 75 | 2:00:00 | 72 | 1:00:00 | 75.07 | 0 | 5.1 | 172 | 0 | 67 | 67 | 67 | 67 |
| 05/05/2026 | 3:00:00 | 125 | 63 | 2:03:05 | 62 | 2:46:01 | 63 | 78 | 2:59:02 | 75 | 2:00:04 | 77.57 | 0 | 4.9 | 167 | 0 | 67 | 67 | 67 | 67 |
| 05/05/2026 | 4:00:00 | 125 | 63 | 3:00:01 | 62 | 3:59:02 | 62 | 79 | 3:59:05 | 78 | 3:00:04 | 79.03 | 0 | 6.3 | 171 | 0 | 66 | 66 | 67 | 67 |
| 05/05/2026 | 5:00:00 | 125 | 62 | 4:00:03 | 61 | 4:42:01 | 61 | 81 | 4:43:05 | 79 | 4:00:04 | 80.8 | 0 | 6.1 | 168 | 0 | 66 | 66 | 67 | 67 |
| 05/05/2026 | 6:00:00 | 125 | 62 | 5:59:05 | 61 | 5:07:03 | 62 | 81 | 5:39:00 | 81 | 5:13:03 | 80.7 | 0 | 7.1 | 172 | 2 | 66 | 66 | 67 | 67 |
| 05/05/2026 | 7:00:00 | 125 | 65 | 7:00:00 | 62 | 6:00:01 | 65 | 81 | 6:01:00 | 77 | 6:57:01 | 77.51 | 0 | 7.8 | 175 | 17 | 66 | 66 | 67 | 66 |
| 05/05/2026 | 8:00:00 | 125 | 68 | 7:59:01 | 65 | 7:00:05 | 68 | 78 | 7:06:04 | 76 | 7:50:04 | 76.53 | 0 | 8.4 | 186 | 16 | 66 | 66 | 66 | 66 |
| 05/05/2026 | 9:00:00 | 125 | 69 | 8:59:05 | 68 | 8:00:00 | 69 | 77 | 8:59:03 | 76 | 8:20:00 | 77.29 | 0 | 9.1 | 190 | 13 | 66 | 66 | 67 | 67 |
| 05/05/2026 | 10:00:00 | 125 | 71 | 9:45:01 | 69 | 9:00:00 | 71 | 78 | 9:09:02 | 77 | 9:46:05 | 77.73 | 0 | 7.6 | 167 | 22 | 66 | 67 | 67 | 67 |
| 05/05/2026 | 11:00:00 | 125 | 72 | 10:27:01 | 71 | 10:00:01 | 72 | 78 | 10:00:01 | 76 | 10:32:05 | 77.26 | 0 | 9.1 | 177 | 20 | 67 | 67 | 67 | 67 |
| 05/05/2026 | 12:00:00 | 125 | 73 | 11:52:05 | 71 | 11:12:00 | 73 | 78 | 11:14:04 | 76 | 11:54:01 | 76.5 | 0 | 9.1 | 173 | 20 | 67 | 67 | 67 | 67 |
| 05/05/2026 | 13:00:00 | 125 | 75 | 12:19:02 | 73 | 12:01:02 | 75 | 77 | 12:03:01 | 74 | 12:25:04 | 74.97 | 0 | 9.8 | 169 | 37 | 68 | 68 | 67 | 67 |
| 05/05/2026 | 14:00:00 | 125 | 76 | 13:33:05 | 75 | 13:00:00 | 76 | 77 | 13:59:04 | 74 | 13:16:03 | 76.48 | 0 | 10.3 | 178 | 24 | 68 | 68 | 68 | 68 |
| 05/05/2026 | 15:00:00 | 125 | 76 | 14:00:01 | 71 | 14:35:03 | 72 | 90 | 14:44:03 | 76 | 14:00:00 | 87.7 | 0 | 8.4 | 196 | 11 | 68 | 68 | 68 | 68 |
| 05/05/2026 | 16:00:00 | 125 | 76 | 15:57:05 | 72 | 15:00:00 | 76 | 88 | 15:00:03 | 79 | 15:59:03 | 79.33 | 0 | 6.6 | 163 | 17 | 69 | 69 | 68 | 68 |
| 05/05/2026 | 17:00:00 | 125 | 77 | 16:32:05 | 76 | 16:00:05 | 76 | 79 | 16:00:01 | 76 | 16:38:03 | 76.56 | 0 | 7.9 | 160 | 11 | 69 | 69 | 68 | 68 |
| 05/05/2026 | 18:00:00 | 125 | 77 | 17:07:00 | 76 | 17:36:02 | 76 | 77 | 17:39:03 | 76 | 17:07:05 | 76.85 | 0 | 7.6 | 173 | 3 | 69 | 69 | 68 | 68 |
| 05/05/2026 | 19:00:00 | 125 | 76 | 18:00:00 | 76 | 18:59:03 | 76 | 78 | 19:00:00 | 77 | 18:00:00 | 78.25 | 0 | 8.6 | 172 | 2 | 69 | 69 | 69 | 69 |
| 05/05/2026 | 20:00:00 | 125 | 76 | 19:13:05 | 75 | 19:55:03 | 76 | 80 | 19:57:01 | 78 | 19:01:02 | 79.45 | 0 | 7.4 | 174 | 0 | 69 | 69 | 69 | 69 |
| 05/05/2026 | 21:00:00 | 125 | 76 | 20:01:02 | 75 | 20:25:05 | 75 | 81 | 20:47:05 | 79 | 20:00:03 | 80.8 | 0 | 7.6 | 173 | 0 | 69 | 69 | 69 | 69 |
| 05/05/2026 | 22:00:00 | 125 | 75 | 21:02:03 | 75 | 21:58:01 | 75 | 82 | 21:59:05 | 81 | 21:01:05 | 81.8 | 0 | 6.5 | 178 | 0 | 69 | 69 | 69 | 69 |
| 05/05/2026 | 23:00:00 | 125 | 75 | 22:00:02 | 75 | 22:59:00 | 75 | 83 | 23:00:00 | 82 | 22:00:00 | 83.1 | 0 | 6.6 | 178 | 0 | 69 | 69 | 69 | 69 |
| 05/06/2026 | 0:00:00 | 126 | 75 | 23:57:04 | 75 | 23:22:03 | 75 | 85 | 23:50:05 | 83 | 23:00:00 | 84.2 | 0 | 8.0 | 184 | 0 | 69 | 69 | 69 | 69 |
| 05/06/2026 | 1:00:00 | 126 | 76 | 0:21:04 | 75 | 0:59:05 | 75 | 85 | 1:00:00 | 84 | 0:00:03 | 85.4 | 0 | 10.6 | 194 | 0 | 69 | 69 | 69 | 69 |
| 05/06/2026 | 2:00:00 | 126 | 75 | 1:00:01 | 75 | 1:51:05 | 75 | 87 | 1:59:03 | 85 | 1:00:03 | 86.9 | 0 | 9.3 | 198 | 0 | 69 | 69 | 69 | 69 |
| 05/06/2026 | 3:00:00 | 126 | 75 | 2:29:03 | 74 | 2:57:02 | 74 | 88 | 3:00:00 | 87 | 2:00:00 | 87.5 | 0 | 9.1 | 202 | 0 | 69 | 69 | 69 | 69 |
| 05/06/2026 | 4:00:00 | 126 | 74 | 3:00:05 | 73 | 3:58:05 | 73 | 89 | 3:59:03 | 88 | 3:01:01 | 88.6 | 0 | 0.7 | 203 | 0 | 69 | 69 | 69 | 69 |
| 05/06/2026 | 5:00:00 | 126 | 74 | 4:49:00 | 73 | 4:12:01 | 73 | 89 | 4:28:02 | 89 | 4:00:04 | 88.8 | 0 | 6.6 | 207 | 0 | 69 | 69 | 69 | 69 |
| 05/06/2026 | 6:00:00 | 126 | 74 | 5:47:01 | 73 | 5:01:02 | 74 | 89 | 5:33:01 | 89 | 5:47:04 | 88.8 | 0 | 7.2 | 199 | 1 | 69 | 69 | 69 | 69 |
| 05/06/2026 | 7:00:00 | 126 | 74 | 6:50:00 | 68 | 7:00:00 | 68 | 91 | 6:56:03 | 86 | 6:52:04 | 88.7 | 0 | 6.9 | 210 | 4 | 69 | 69 | 69 | 69 |
| 05/06/2026 | 8:00:00 | 126 | 68 | 7:00:01 | 63 | 7:57:05 | 63 | 93 | 7:59:04 | 89 | 7:00:00 | 93 | 0.01 | 4.1 | 338 | 3 | 69 | 69 | 69 | 69 |
| 05/06/2026 | 9:00:00 | 126 | 63 | 8:04:04 | 60 | 9:00:00 | 60 | 93 | 8:28:00 | 93 | 8:58:03 | 92.7 | 0 | 5.9 | 336 | 7 | 69 | 69 | 69 | 69 |
| 05/06/2026 | 10:00:00 | 126 | 60 | 9:00:02 | 59 | 9:59:04 | 59 | 93 | 9:14:03 | 92 | 9:59:04 | 91.9 | 0 | 6.9 | 340 | 14 | 69 | 68 | 69 | 69 |
| 05/06/2026 | 11:00:00 | 126 | 60 | 10:30:03 | 59 | 10:00:00 | 60 | 92 | 10:04:02 | 91 | 10:52:04 | 91 | 0 | 7.0 | 345 | 23 | 68 | 68 | 68 | 68 |
| 05/06/2026 | 12:00:00 | 126 | 60 | 11:52:03 | 59 | 11:38:04 | 60 | 92 | 11:02:05 | 90 | 11:58:02 | 90.3 | 0 | 7.4 | 348 | 23 | 68 | 68 | 68 | 68 |
| 05/06/2026 | 13:00:00 | 126 | 60 | 12:11:02 | 59 | 12:54:00 | 60 | 91 | 12:23:05 | 90 | 12:13:04 | 90.4 | 0 | 7.0 | 352 | 16 | 67 | 67 | 68 | 68 |
| 05/06/2026 | 14:00:00 | 126 | 61 | 13:36:01 | 60 | 13:00:00 | 60 | 91 | 13:00:04 | 88 | 13:40:01 | 89 | 0 | 8.1 | 355 | 26 | 67 | 67 | 68 | 68 |
| 05/06/2026 | 15:00:00 | 126 | 60 | 14:00:02 | 57 | 14:43:04 | 57 | 91 | 14:44:05 | 89 | 14:01:01 | 89.5 | 0 | 10.2 | 360 | 13 | 67 | 67 | 68 | 67 |
| 05/06/2026 | 16:00:00 | 126 | 58 | 15:33:02 | 57 | 15:00:04 | 58 | 90 | 15:00:01 | 87 | 15:38:05 | 88 | 0 | 7.8 | 25 | 13 | 66 | 66 | 67 | 67 |
| 05/06/2026 | 17:00:00 | 126 | 59 | 16:21:01 | 58 | 16:03:04 | 59 | 88 | 16:07:04 | 87 | 16:25:00 | 87.6 | 0 | 5.4 | 26 | 7 | 66 | 66 | 67 | 67 |
| 05/06/2026 | 18:00:00 | 126 | 59 | 17:43:01 | 58 | 17:02:01 | 59 | 88 | 17:19:01 | 87 | 17:47:01 | 87.9 | 0 | 6.2 | 12 | 5 | 66 | 66 | 67 | 67 |
| 05/06/2026 | 19:00:00 | 126 | 59 | 18:00:02 | 58 | 18:49:05 | 58 | 90 | 18:56:00 | 88 | 18:02:02 | 89.6 | 0 | 7.7 | 358 | 0 | 66 | 66 | 67 | 66 |
| 05/06/2026 | 20:00:00 | 126 | 58 | 19:00:04 | 57 | 19:59:01 | 57 | 90 | 19:59:05 | 89 | 19:03:04 | 89.8 | 0 | 8.1 | 10 | 0 | 65 | 65 | 66 | 66 |
| 05/06/2026 | 21:00:00 | 126 | 57 | 20:00:01 | 57 | 20:59:05 | 57 | 91 | 20:56:05 | 90 | 20:02:00 | 90.6 | 0 | 7.6 | 6 | 0 | 65 | 65 | 66 | 66 |
| 05/06/2026 | 22:00:00 | 126 | 57 | 21:11:02 | 57 | 21:52:03 | 57 | 92 | 21:58:00 | 91 | 21:00:05 | 91.5 | 0 | 7.5 | 6 | 0 | 65 | 65 | 66 | 66 |
| 05/06/2026 | 23:00:00 | 126 | 57 | 22:37:01 | 57 | 22:06:04 | 57 | 92 | 22:12:01 | 91 | 22:41:04 | 91 | 0 | 7.1 | 3 | 0 | 64 | 64 | 66 | 65 |
| 05/07/2026 | 0:00:00 | 127 | 57 | 23:54:04 | 56 | 23:12:00 | 57 | 91 | 23:00:01 | 91 | 23:48:03 | 90.7 | 0 | 6.6 | 14 | 0 | 64 | 64 | 65 | 65 |
| 05/07/2026 | 1:00:00 | 127 | 57 | 0:01:01 | 56 | 0:57:01 | 56 | 92 | 0:53:00 | 91 | 0:02:00 | 92 | 0 | 6.2 | 6 | 0 | 64 | 64 | 65 | 65 |
| 05/07/2026 | 2:00:00 | 127 | 56 | 1:02:01 | 55 | 1:59:04 | 55 | 93 | 1:59:04 | 92 | 1:00:05 | 93.1 | 0.01 | 6.2 | 354 | 0 | 64 | 64 | 65 | 65 |
| 05/07/2026 | 3:00:00 | 127 | 55 | 2:01:02 | 55 | 2:54:00 | 55 | 94 | 2:50:01 | 93 | 2:01:00 | 93.8 | 0.05 | 6.6 | 356 | 0 | 64 | 64 | 65 | 65 |
| 05/07/2026 | 4:00:00 | 127 | 55 | 3:43:04 | 55 | 3:00:00 | 55 | 94 | 3:11:01 | 93 | 3:52:03 | 93.6 | 0 | 5.1 | 8 | 0 | 63 | 63 | 65 | 64 |
| Average | 65.13 | 63.43 | 64.25 | 76.12 | 71.82 | 73.99 | 0 | 5.53 | 17.06 | 65.66 | 65.64 | 66.21 | 66.17 | |||||||
| Total | 0.21 |